Time;durP1;ratioP1;P1;durP2;ratioP2;P2;SDS_P1;SDS_P2;PMS_P1;PMS_P2;Temp;Humidity;BMP_temperature;BMP_pressure;BME280_temperature;BME280_humidity;BME280_pressure;Samples;Min_cycle;Max_cycle;Signal;HPM_P1;HPM_P2
2021/10/09 00:03:27;;;;;;;23.13;11.40;;;;;;;;;;10205682;28;20125;-61
2021/10/09 00:08:24;;;;;;;43.87;21.23;;;;;;;;;;10203871;28;20027;-59
2021/10/09 00:13:22;;;;;;;27.73;13.23;;;;;;;;;;10199051;28;20053;-60
2021/10/09 00:18:19;;;;;;;14.40;7.63;;;;;;;;;;10204639;28;20085;-58
2021/10/09 00:23:16;;;;;;;26.43;9.87;;;;;;;;;;10213172;28;20113;-60
2021/10/09 00:28:14;;;;;;;18.50;9.57;;;;;;;;;;10207549;28;20057;-60
2021/10/09 00:33:11;;;;;;;21.07;8.67;;;;;;;;;;10194360;28;20442;-59
2021/10/09 00:38:09;;;;;;;21.70;10.00;;;;;;;;;;10192295;28;20034;-60
2021/10/09 00:43:06;;;;;;;25.13;13.37;;;;;;;;;;10209730;28;20042;-60
2021/10/09 00:48:03;;;;;;;19.63;9.77;;;;;;;;;;10195114;28;20335;-59
2021/10/09 00:53:01;;;;;;;37.63;19.70;;;;;;;;;;10197546;28;20035;-59
2021/10/09 00:57:59;;;;;;;23.87;11.27;;;;;;;;;;10193994;28;20046;-59
2021/10/09 01:02:57;;;;;;;32.40;15.57;;;;;;;;;;10205983;28;20550;-60
2021/10/09 01:07:54;;;;;;;27.48;13.77;;;;;;;;;;10194485;28;20133;-59
2021/10/09 01:12:52;;;;;;;28.60;14.37;;;;;;;;;;10197982;28;20137;-61
2021/10/09 01:17:49;;;;;;;33.63;17.73;;;;;;;;;;10213907;28;20046;-60
2021/10/09 01:22:48;;;;;;;42.85;18.92;;;;;;;;;;10192422;28;20066;-60
2021/10/09 01:27:47;;;;;;;36.38;19.17;;;;;;;;;;10198173;28;20511;-61
2021/10/09 01:32:45;;;;;;;34.83;19.08;;;;;;;;;;10194183;28;20075;-59
2021/10/09 01:37:43;;;;;;;41.73;19.87;;;;;;;;;;10184700;28;21230;-60
2021/10/09 01:42:42;;;;;;;42.88;24.77;;;;;;;;;;10204690;28;20037;-60
2021/10/09 01:47:41;;;;;;;40.93;19.10;;;;;;;;;;10205044;28;20572;-60
2021/10/09 01:52:39;;;;;;;40.85;20.02;;;;;;;;;;10205728;28;20042;-60
2021/10/09 01:57:37;;;;;;;44.63;24.07;;;;;;;;;;10189022;28;20039;-60
2021/10/09 02:02:34;;;;;;;36.08;18.92;;;;;;;;;;10203175;28;20452;-60
2021/10/09 02:07:35;;;;;;;14.07;7.55;;;;;;;;;;10182653;28;20061;-59
2021/10/09 02:12:34;;;;;;;22.45;10.52;;;;;;;;;;10196164;28;20062;-61
2021/10/09 02:28:04;;;;;;;33.45;15.45;;;;;;;;;;10188901;28;20117;-59
2021/10/09 02:33:01;;;;;;;18.37;9.87;;;;;;;;;;10200438;28;20129;-60
2021/10/09 02:38:01;;;;;;;22.63;9.05;;;;;;;;;;10180967;28;20062;-59
2021/10/09 02:42:59;;;;;;;;;;;;;;;;;;10226014;28;20096;-60
2021/10/09 02:47:59;;;;;;;25.13;12.07;;;;;;;;;;10206471;28;19941;-59
2021/10/09 02:52:58;;;;;;;43.15;20.73;;;;;;;;;;10220778;28;20042;-60
2021/10/09 02:57:56;;;;;;;25.50;9.70;;;;;;;;;;10205571;28;20038;-59
2021/10/09 03:02:53;;;;;;;13.43;4.60;;;;;;;;;;10208589;28;20022;-60
2021/10/09 03:07:53;;;;;;;40.17;21.23;;;;;;;;;;10203093;28;20515;-60
2021/10/09 03:12:52;;;;;;;38.55;20.08;;;;;;;;;;10226784;28;20088;-60
2021/10/09 03:17:49;;;;;;;21.20;8.80;;;;;;;;;;10211336;28;20476;-60
2021/10/09 03:22:47;;;;;;;18.07;8.40;;;;;;;;;;10211249;28;20316;-60
2021/10/09 03:27:46;;;;;;;37.72;18.45;;;;;;;;;;10211202;28;20045;-60
2021/10/09 03:32:46;;;;;;;32.33;15.05;;;;;;;;;;10225276;28;20026;-58
2021/10/09 03:37:43;;;;;;;22.97;13.53;;;;;;;;;;10225092;28;20039;-59
2021/10/09 03:43:03;;;;;;;10.55;4.80;;;;;;;;;;10211628;28;20050;-60
2021/10/09 03:53:27;;;;;;;38.65;20.85;;;;;;;;;;10176586;28;19919;-60
2021/10/09 03:58:25;;;;;;;23.50;10.90;;;;;;;;;;10215692;28;20121;-60
2021/10/09 04:03:23;;;;;;;14.53;8.10;;;;;;;;;;10230112;28;20133;-60
2021/10/09 04:08:21;;;;;;;20.10;8.20;;;;;;;;;;10213454;28;20045;-60
2021/10/09 04:13:19;;;;;;;26.63;11.27;;;;;;;;;;10208986;28;20046;-60
2021/10/09 04:18:16;;;;;;;33.63;18.57;;;;;;;;;;10207934;28;20042;-60
2021/10/09 04:23:14;;;;;;;43.10;21.77;;;;;;;;;;10225925;28;20038;-60
2021/10/09 04:28:11;;;;;;;29.53;13.77;;;;;;;;;;10225991;28;20041;-60
2021/10/09 04:33:09;;;;;;;38.87;18.20;;;;;;;;;;10216490;28;20112;-60
2021/10/09 04:38:08;;;;;;;41.97;21.38;;;;;;;;;;10222425;28;20415;-60
2021/10/09 04:43:07;;;;;;;41.60;20.60;;;;;;;;;;10207396;28;20416;-59
2021/10/09 04:48:05;;;;;;;22.57;10.37;;;;;;;;;;10207858;28;20026;-60
2021/10/09 04:53:04;;;;;;;22.98;13.27;;;;;;;;;;10224256;28;20030;-60
2021/10/09 04:58:02;;;;;;;22.90;12.97;;;;;;;;;;10231370;28;20030;-59
2021/10/09 05:02:59;;;;;;;34.23;18.70;;;;;;;;;;10222017;28;20080;-60
2021/10/09 05:08:00;;;;;;;38.88;19.60;;;;;;;;;;10231623;28;20537;-59
2021/10/09 05:12:58;;;;;;;34.03;17.33;;;;;;;;;;10234760;28;20056;-60
2021/10/09 05:17:55;;;;;;;36.50;17.73;;;;;;;;;;10246935;28;20038;-61
2021/10/09 05:22:53;;;;;;;33.63;17.63;;;;;;;;;;10263699;28;20049;-60
2021/10/09 05:28:04;;;;;;;34.13;18.30;;;;;;;;;;10213035;28;20038;-60
2021/10/09 05:33:15;;;;;;;33.83;16.05;;;;;;;;;;10230978;28;20297;-60
2021/10/09 05:38:15;;;;;;;31.83;16.42;;;;;;;;;;10260863;28;20500;-59
2021/10/09 05:43:12;;;;;;;27.05;15.02;;;;;;;;;;10205921;28;20058;-58
2021/10/09 05:48:10;;;;;;;29.63;15.00;;;;;;;;;;10223247;28;20170;-61
2021/10/09 05:53:15;;;;;;;33.42;15.75;;;;;;;;;;10220760;28;20088;-60
2021/10/09 05:58:22;;;;;;;5.40;3.00;;;;;;;;;;10159259;28;20037;-60
2021/10/09 06:59:27;;;;;;;11.38;3.40;;;;;;;;;;10196909;28;20129;-60
2021/10/09 07:01:29;;;;;;;8.20;3.55;;;;;;;;;;10207471;28;20038;-60
2021/10/09 07:06:27;;;;;;;4.73;2.83;;;;;;;;;;10213621;28;20038;-61
2021/10/09 07:11:31;;;;;;;5.50;4.50;;;;;;;;;;10203390;28;20043;-58
2021/10/09 07:16:29;;;;;;;6.20;3.63;;;;;;;;;;10192896;28;20053;-59
2021/10/09 07:21:27;;;;;;;3.03;2.50;;;;;;;;;;10208496;28;20038;-59
2021/10/09 07:26:24;;;;;;;11.30;5.50;;;;;;;;;;10195018;28;20037;-59
2021/10/09 07:31:22;;;;;;;9.90;5.90;;;;;;;;;;10208402;28;20058;-60
2021/10/09 07:36:19;;;;;;;16.33;6.93;;;;;;;;;;10204905;28;20065;-60
2021/10/09 07:41:16;;;;;;;7.77;4.20;;;;;;;;;;10193361;28;20041;-60
2021/10/09 07:46:14;;;;;;;14.10;6.67;;;;;;;;;;10186864;28;20026;-60
2021/10/09 07:51:11;;;;;;;13.93;6.27;;;;;;;;;;10203168;28;20049;-60
2021/10/09 07:56:09;;;;;;;17.43;6.40;;;;;;;;;;10203585;28;20076;-62
2021/10/09 08:01:06;;;;;;;8.17;4.23;;;;;;;;;;10200975;28;21099;-61
2021/10/09 08:06:03;;;;;;;12.27;5.93;;;;;;;;;;10212539;28;20031;-61
2021/10/09 08:11:01;;;;;;;15.20;6.00;;;;;;;;;;10216899;28;20085;-60
2021/10/09 08:15:58;;;;;;;11.20;5.77;;;;;;;;;;10204796;28;20503;-61
2021/10/09 08:21:04;;;;;;;14.73;5.37;;;;;;;;;;10206840;28;20050;-59
2021/10/09 08:26:31;;;;;;;16.00;5.03;;;;;;;;;;10188550;28;20403;-62
2021/10/09 08:41:47;;;;;;;14.70;5.22;;;;;;;;;;10208146;28;20111;-61
2021/10/09 08:46:45;;;;;;;10.77;4.90;;;;;;;;;;10210636;28;20034;-60
2021/10/09 08:51:42;;;;;;;11.37;5.57;;;;;;;;;;10194842;28;20039;-61
2021/10/09 08:56:47;;;;;;;10.37;4.40;;;;;;;;;;10203280;28;20037;-61
2021/10/09 09:43:41;;;;;;;8.02;3.88;;;;;;;;;;10210563;28;20031;-62
2021/10/09 09:48:40;;;;;;;7.10;3.20;;;;;;;;;;10181204;28;20077;-61
2021/10/09 09:53:39;;;;;;;7.38;3.22;;;;;;;;;;10189538;28;20697;-60
2021/10/09 09:58:44;;;;;;;9.02;4.05;;;;;;;;;;10193538;28;20037;-61
2021/10/09 10:03:53;;;;;;;8.05;5.10;;;;;;;;;;10195829;28;20130;-60
2021/10/09 10:08:51;;;;;;;8.63;4.72;;;;;;;;;;10203609;28;20472;-61
2021/10/09 10:13:49;;;;;;;5.37;3.67;;;;;;;;;;10198348;28;20106;-61
2021/10/09 10:18:50;;;;;;;11.20;5.05;;;;;;;;;;10177626;28;20089;-61
2021/10/09 10:23:48;;;;;;;6.20;3.53;;;;;;;;;;10199647;28;20050;-61
2021/10/09 10:28:45;;;;;;;11.87;5.50;;;;;;;;;;10193161;28;20037;-61
2021/10/09 10:33:44;;;;;;;12.63;3.47;;;;;;;;;;10195875;28;20067;-60
2021/10/09 10:38:48;;;;;;;7.38;3.20;;;;;;;;;;10201722;28;20139;-59
2021/10/09 10:43:55;;;;;;;6.28;3.03;;;;;;;;;;10200877;28;20042;-61
2021/10/09 10:59:31;;;;;;;8.50;3.60;;;;;;;;;;10199969;28;20030;-61
2021/10/09 11:04:35;;;;;;;5.68;2.47;;;;;;;;;;10198104;28;20031;-61
2021/10/09 11:09:34;;;;;;;9.88;4.10;;;;;;;;;;10201744;28;20073;-61
2021/10/09 11:14:31;;;;;;;12.30;5.70;;;;;;;;;;10206386;28;20117;-60
2021/10/09 11:19:48;;;;;;;11.13;5.03;;;;;;;;;;10189292;28;20133;-61
2021/10/09 11:24:45;;;;;;;8.30;4.15;;;;;;;;;;10198811;28;20123;-61
2021/10/09 11:29:43;;;;;;;;;;;;;;;;;;10207747;23;20451;-65
2021/10/09 11:35:06;;;;;;;7.55;4.07;;;;;;;;;;10258509;28;19913;-65
2021/10/09 11:40:04;;;;;;;6.50;2.47;;;;;;;;;;10226035;28;20411;-63
2021/10/09 11:45:04;;;;;;;;;;;;;;;;;;10206291;28;20057;-64
2021/10/09 11:55:28;;;;;;;5.28;2.53;;;;;;;;;;10237608;28;20113;-64
2021/10/09 12:00:28;;;;;;;4.05;2.45;;;;;;;;;;10233926;28;20038;-63
2021/10/09 12:05:32;;;;;;;9.43;3.67;;;;;;;;;;10231475;28;20056;-62
2021/10/09 12:10:30;;;;;;;4.55;2.35;;;;;;;;;;10246740;28;20177;-63
2021/10/09 12:15:27;;;;;;;;;;;;;;;;;;10253410;28;20115;-63
2021/10/09 12:20:27;;;;;;;7.13;3.33;;;;;;;;;;10261224;28;20409;-63
2021/10/09 12:25:26;;;;;;;4.65;1.60;;;;;;;;;;10225535;28;20022;-64
2021/10/09 12:30:37;;;;;;;4.32;2.17;;;;;;;;;;10245047;28;20124;-63
2021/10/09 12:35:34;;;;;;;7.07;1.98;;;;;;;;;;10249442;28;20131;-63
2021/10/09 12:40:32;;;;;;;;;;;;;;;;;;10257599;28;20061;-62
2021/10/09 12:45:29;;;;;;;5.78;2.42;;;;;;;;;;10238094;28;20295;-64
2021/10/09 12:50:26;;;;;;;;;;;;;;;;;;10238721;28;20034;-64
2021/10/09 12:55:26;;;;;;;2.42;1.75;;;;;;;;;;10226835;28;19917;-64
2021/10/09 13:00:24;;;;;;;3.05;1.55;;;;;;;;;;10230009;28;20035;-64
2021/10/09 13:05:21;;;;;;;;;;;;;;;;;;10243156;28;20026;-64
2021/10/09 13:10:20;;;;;;;2.75;1.85;;;;;;;;;;10234649;28;19913;-64
2021/10/09 13:15:18;;;;;;;7.18;2.22;;;;;;;;;;10233917;28;20037;-64
2021/10/09 13:20:15;;;;;;;;;;;;;;;;;;10234597;28;20026;-64
2021/10/09 13:25:13;;;;;;;3.60;2.35;;;;;;;;;;10236156;28;19913;-63
2021/10/09 13:30:10;;;;;;;;;;;;;;;;;;10225203;28;20041;-62
2021/10/09 13:35:08;;;;;;;3.30;2.07;;;;;;;;;;10218470;28;21309;-63
2021/10/09 13:40:05;;;;;;;;;;;;;;;;;;10236267;28;20038;-63
2021/10/09 13:45:02;;;;;;;5.20;2.03;;;;;;;;;;10236636;28;20020;-65
2021/10/09 13:50:00;;;;;;;;;;;;;;;;;;10235567;28;20458;-64
2021/10/09 13:54:57;;;;;;;3.00;1.90;;;;;;;;;;10230299;28;20012;-63
2021/10/09 13:59:54;;;;;;;10.17;4.40;;;;;;;;;;10221489;28;20080;-61
2021/10/09 14:04:52;;;;;;;10.30;5.13;;;;;;;;;;10235648;28;20042;-65
2021/10/09 14:09:50;;;;;;;4.30;2.42;;;;;;;;;;10213824;28;20133;-63
2021/10/09 14:14:47;;;;;;;1.97;1.10;;;;;;;;;;10232443;28;20129;-64
2021/10/09 14:19:47;;;;;;;6.83;3.43;;;;;;;;;;10237025;28;20030;-63
2021/10/09 14:24:44;;;;;;;9.57;3.08;;;;;;;;;;10210561;28;20658;-63
2021/10/09 14:29:42;;;;;;;2.30;1.10;;;;;;;;;;10237242;28;20046;-63
2021/10/09 14:34:39;;;;;;;5.37;1.53;;;;;;;;;;10216878;28;20026;-65
2021/10/09 14:39:36;;;;;;;16.43;4.00;;;;;;;;;;10234616;28;20377;-64
2021/10/09 14:44:34;;;;;;;;;;;;;;;;;;10241867;28;20132;-63
2021/10/09 14:49:51;;;;;;;7.35;4.72;;;;;;;;;;10214114;28;19918;-63
2021/10/09 15:21:02;;;;;;;2.88;1.70;;;;;;;;;;10233386;28;20095;-64
2021/10/09 15:26:00;;;;;;;1.60;1.00;;;;;;;;;;10213516;28;20095;-63
2021/10/09 15:30:57;;;;;;;4.43;1.63;;;;;;;;;;10216196;28;20253;-64
2021/10/09 15:35:55;;;;;;;2.30;1.33;;;;;;;;;;10229846;28;20038;-64
2021/10/09 15:40:52;;;;;;;3.78;1.38;;;;;;;;;;10250623;28;20415;-63
2021/10/09 15:45:50;;;;;;;5.47;1.80;;;;;;;;;;10248074;28;20025;-65
2021/10/09 15:50:47;;;;;;;1.80;1.00;;;;;;;;;;10230002;28;20033;-63
2021/10/09 15:55:44;;;;;;;7.63;2.40;;;;;;;;;;10224130;28;20339;-63
2021/10/09 16:00:42;;;;;;;1.17;0.93;;;;;;;;;;10257386;28;20088;-65
2021/10/09 16:05:39;;;;;;;3.47;1.00;;;;;;;;;;10248614;28;20018;-64
2021/10/09 16:10:37;;;;;;;8.43;1.67;;;;;;;;;;10230992;28;20014;-63
2021/10/09 16:15:38;;;;;;;0.80;0.73;;;;;;;;;;10215870;28;20018;-64
2021/10/09 16:20:35;;;;;;;14.00;4.35;;;;;;;;;;10227092;28;20025;-65
2021/10/09 16:25:32;;;;;;;8.67;3.73;;;;;;;;;;10221490;28;20033;-64
2021/10/09 16:30:30;;;;;;;2.60;0.90;;;;;;;;;;10237564;28;20026;-64
2021/10/09 16:35:27;;;;;;;4.50;1.33;;;;;;;;;;10243110;28;20034;-64
2021/10/09 16:40:25;;;;;;;12.57;4.60;;;;;;;;;;10214390;28;20084;-63
2021/10/09 16:45:22;;;;;;;9.77;4.30;;;;;;;;;;10240425;28;20281;-64
2021/10/09 16:50:20;;;;;;;9.33;4.13;;;;;;;;;;10234210;28;20055;-64
2021/10/09 16:55:17;;;;;;;14.10;3.90;;;;;;;;;;10215896;28;20038;-64
2021/10/09 17:00:14;;;;;;;6.03;3.40;;;;;;;;;;10231640;28;20038;-67
2021/10/09 17:05:12;;;;;;;7.90;3.63;;;;;;;;;;10230604;28;20092;-64
2021/10/09 17:10:10;;;;;;;6.27;3.97;;;;;;;;;;10232073;28;20052;-65
2021/10/09 17:15:07;;;;;;;5.72;3.80;;;;;;;;;;10230364;28;20673;-63
2021/10/09 17:20:05;;;;;;;11.97;4.07;;;;;;;;;;10237810;28;20088;-63
2021/10/09 17:25:03;;;;;;;6.43;3.90;;;;;;;;;;10242650;28;20049;-63
2021/10/09 17:30:00;;;;;;;5.03;3.37;;;;;;;;;;10234741;28;20048;-63
2021/10/09 17:34:57;;;;;;;11.20;4.47;;;;;;;;;;10243218;28;20484;-63
2021/10/09 17:39:55;;;;;;;8.23;4.47;;;;;;;;;;10226471;28;20038;-60
2021/10/09 17:44:52;;;;;;;10.17;5.67;;;;;;;;;;10234262;28;20506;-64
2021/10/09 17:49:50;;;;;;;13.63;6.80;;;;;;;;;;10233042;28;20030;-65
2021/10/09 17:54:48;;;;;;;13.03;7.37;;;;;;;;;;10228497;28;20042;-61
2021/10/09 17:59:45;;;;;;;4.70;2.50;;;;;;;;;;10240270;28;20120;-64
2021/10/09 18:04:43;;;;;;;8.60;4.53;;;;;;;;;;10245139;28;20410;-64
2021/10/09 18:09:40;;;;;;;17.67;6.63;;;;;;;;;;10245059;28;20466;-63
2021/10/09 18:14:38;;;;;;;12.13;6.30;;;;;;;;;;10232687;28;20084;-64
2021/10/09 18:19:35;;;;;;;12.93;7.00;;;;;;;;;;10229967;28;20034;-62
2021/10/09 18:24:32;;;;;;;14.40;6.67;;;;;;;;;;10215554;28;20519;-62
2021/10/09 18:29:30;;;;;;;14.20;6.23;;;;;;;;;;10230720;28;20095;-62
2021/10/09 18:34:28;;;;;;;11.38;5.07;;;;;;;;;;10236501;28;20034;-62
2021/10/09 18:39:25;;;;;;;9.77;4.83;;;;;;;;;;10248571;28;20169;-63
2021/10/09 18:44:23;;;;;;;12.13;6.67;;;;;;;;;;10249597;28;20062;-63
2021/10/09 18:49:22;;;;;;;10.87;5.07;;;;;;;;;;10244200;28;20042;-62
2021/10/09 18:54:20;;;;;;;12.02;5.25;;;;;;;;;;10232304;28;20837;-64
2021/10/09 18:59:17;;;;;;;10.20;5.43;;;;;;;;;;10246757;28;20399;-63
2021/10/09 19:04:14;;;;;;;12.13;5.60;;;;;;;;;;10252132;28;20203;-64
2021/10/09 19:09:18;;;;;;;12.13;5.70;;;;;;;;;;10226064;28;20034;-62
2021/10/09 19:14:20;;;;;;;14.50;5.35;;;;;;;;;;10220699;28;20038;-63
2021/10/09 19:19:18;;;;;;;13.55;5.65;;;;;;;;;;10247962;28;20450;-64
2021/10/09 19:24:15;;;;;;;18.73;6.33;;;;;;;;;;10221391;28;20049;-65
2021/10/09 19:29:13;;;;;;;9.53;5.33;;;;;;;;;;10250206;28;20259;-64
2021/10/09 19:39:12;;;;;;;10.63;6.13;;;;;;;;;;10251875;28;20515;-64
2021/10/09 19:44:10;;;;;;;11.40;6.27;;;;;;;;;;10238841;28;20586;-63
2021/10/09 19:49:08;;;;;;;11.60;5.33;;;;;;;;;;10218857;28;20044;-64
2021/10/09 19:54:08;;;;;;;;;;;;;;;;;;10239467;28;20038;-64
2021/10/09 19:59:05;;;;;;;;;;;;;;;;;;10232705;28;20804;-63
2021/10/09 20:04:03;;;;;;;10.10;4.90;;;;;;;;;;10259724;28;20131;-64
2021/10/09 20:09:04;;;;;;;10.20;5.73;;;;;;;;;;10229483;28;20034;-62
2021/10/09 20:14:02;;;;;;;11.48;5.47;;;;;;;;;;10226798;28;20054;-63
2021/10/09 20:18:59;;;;;;;11.30;4.90;;;;;;;;;;10226261;28;20050;-64
2021/10/09 20:23:57;;;;;;;12.70;5.80;;;;;;;;;;10200779;28;20140;-63
2021/10/09 20:28:55;;;;;;;9.63;4.77;;;;;;;;;;10224395;28;20426;-62
2021/10/09 20:33:52;;;;;;;7.57;4.67;;;;;;;;;;10224914;28;20044;-64
2021/10/09 20:38:49;;;;;;;9.23;5.57;;;;;;;;;;10251879;28;20514;-65
2021/10/09 20:43:47;;;;;;;11.57;4.87;;;;;;;;;;10206611;28;20111;-64
2021/10/09 20:48:44;;;;;;;10.73;4.07;;;;;;;;;;10229003;28;20040;-63
2021/10/09 20:53:42;;;;;;;11.33;4.93;;;;;;;;;;10219573;28;20034;-61
2021/10/09 20:58:39;;;;;;;7.83;3.70;;;;;;;;;;10233430;28;20037;-64
2021/10/09 21:03:36;;;;;;;4.13;3.07;;;;;;;;;;10225506;28;20419;-63
2021/10/09 21:08:36;;;;;;;10.23;5.20;;;;;;;;;;10247911;28;20136;-63
2021/10/09 21:24:02;;;;;;;9.35;5.00;;;;;;;;;;10211327;28;20056;-65
2021/10/09 21:28:59;;;;;;;7.60;3.90;;;;;;;;;;10251606;28;20056;-64
2021/10/09 21:33:57;;;;;;;9.80;6.03;;;;;;;;;;10223729;28;20049;-62
2021/10/09 21:38:54;;;;;;;9.50;5.53;;;;;;;;;;10247632;28;20091;-63
2021/10/09 21:43:51;;;;;;;7.90;5.00;;;;;;;;;;10223097;28;20692;-63
2021/10/09 21:48:49;;;;;;;11.57;4.83;;;;;;;;;;10229986;28;20131;-63
2021/10/09 21:53:46;;;;;;;9.87;5.27;;;;;;;;;;10206231;28;20034;-63
2021/10/09 21:58:59;;;;;;;9.37;5.20;;;;;;;;;;10240701;28;20515;-64
2021/10/09 22:35:17;;;;;;;10.48;5.43;;;;;;;;;;10241305;28;20120;-62
2021/10/09 22:40:15;;;;;;;10.80;5.25;;;;;;;;;;10235232;28;20042;-65
2021/10/09 22:45:13;;;;;;;11.85;4.97;;;;;;;;;;10239031;28;20044;-64
2021/10/09 22:50:11;;;;;;;12.73;6.53;;;;;;;;;;10230753;28;20071;-64
2021/10/09 22:55:10;;;;;;;6.37;4.57;;;;;;;;;;10208727;28;20053;-63
2021/10/09 23:00:07;;;;;;;;;;;;;;;;;;10224465;28;20046;-66
2021/10/09 23:05:04;;;;;;;13.47;5.00;;;;;;;;;;10231586;28;19921;-63
2021/10/09 23:10:03;;;;;;;8.60;5.20;;;;;;;;;;10250401;28;20355;-64
2021/10/09 23:15:02;;;;;;;10.10;5.47;;;;;;;;;;10238269;28;20042;-64
2021/10/09 23:20:00;;;;;;;9.32;6.07;;;;;;;;;;10210671;28;20038;-62
2021/10/09 23:24:57;;;;;;;9.60;5.63;;;;;;;;;;10239599;28;20044;-61
2021/10/09 23:29:54;;;;;;;13.00;5.80;;;;;;;;;;10234754;28;20038;-62
2021/10/09 23:34:52;;;;;;;9.33;4.87;;;;;;;;;;10232266;28;20026;-63
2021/10/09 23:39:49;;;;;;;12.40;6.20;;;;;;;;;;10218170;28;20046;-63
2021/10/09 23:44:46;;;;;;;7.33;4.27;;;;;;;;;;10229335;28;20449;-63
2021/10/09 23:49:44;;;;;;;6.97;4.53;;;;;;;;;;10237827;28;20034;-64
2021/10/09 23:54:41;;;;;;;8.50;4.90;;;;;;;;;;10241394;28;20033;-62
2021/10/09 23:59:39;;;;;;;7.70;4.83;;;;;;;;;;10242008;28;20112;-63
